createdAt,value
2018-07-26T00:00:15.376Z,29.91
2018-07-26T00:03:15.613Z,29.81
2018-07-26T00:06:15.677Z,29.77
2018-07-26T00:09:15.860Z,29.77
2018-07-26T00:12:15.024Z,29.84
2018-07-26T00:15:15.625Z,29.90
2018-07-26T00:18:16.744Z,29.96
2018-07-26T00:21:15.347Z,30.00
2018-07-26T00:24:15.597Z,29.99
2018-07-26T00:27:16.198Z,30.01
2018-07-26T00:30:15.543Z,29.98
2018-07-26T00:33:15.846Z,29.99
2018-07-26T00:36:15.017Z,29.99
2018-07-26T00:39:15.248Z,29.95
2018-07-26T00:42:15.496Z,29.91
2018-07-26T00:45:15.841Z,29.84
2018-07-26T00:48:14.997Z,29.73
2018-07-26T00:51:15.359Z,29.71
2018-07-26T00:54:15.613Z,29.64
2018-07-26T00:57:15.969Z,29.60
2018-07-26T01:00:15.160Z,29.61
2018-07-26T01:03:15.453Z,29.63
2018-07-26T01:06:15.621Z,29.61
2018-07-26T01:09:15.963Z,29.58
2018-07-26T01:12:15.082Z,29.54
2018-07-26T01:15:15.315Z,29.48
2018-07-26T01:18:15.533Z,29.38
2018-07-26T01:21:15.795Z,29.33
2018-07-26T01:24:14.967Z,29.35
2018-07-26T01:27:15.207Z,29.32
2018-07-26T01:30:15.538Z,29.28
2018-07-26T01:33:15.823Z,29.16
2018-07-26T01:36:15.004Z,29.04
2018-07-26T01:39:15.303Z,28.89
2018-07-26T01:42:15.499Z,28.78
2018-07-26T01:45:15.712Z,28.72
2018-07-26T01:48:15.896Z,28.71
2018-07-26T01:51:15.147Z,28.75
2018-07-26T01:54:15.343Z,28.76
2018-07-26T01:57:15.513Z,28.76
2018-07-26T02:00:15.725Z,28.72
2018-07-26T02:03:14.934Z,28.72
2018-07-26T02:06:15.292Z,28.71
2018-07-26T02:09:15.519Z,28.64
2018-07-26T02:12:15.669Z,28.65
2018-07-26T02:15:15.834Z,28.57
2018-07-26T02:18:15.110Z,28.56
2018-07-26T02:21:15.330Z,28.60
2018-07-26T02:24:15.531Z,28.63
2018-07-26T02:27:15.678Z,28.63
2018-07-26T02:30:14.914Z,28.58
2018-07-26T02:33:15.099Z,28.53
2018-07-26T02:36:15.208Z,28.49
2018-07-26T02:39:15.322Z,28.42
2018-07-26T02:42:15.810Z,28.39
2018-07-26T02:45:15.044Z,28.41
2018-07-26T02:48:15.344Z,28.43
2018-07-26T02:51:15.483Z,28.38
2018-07-26T02:54:15.668Z,28.38
2018-07-26T02:57:15.842Z,28.41
2018-07-26T03:00:15.044Z,28.40
2018-07-26T03:03:15.243Z,28.38
2018-07-26T03:06:15.464Z,28.35
2018-07-26T03:09:15.737Z,28.32
2018-07-26T03:12:15.938Z,28.33
2018-07-26T03:15:15.409Z,28.30
2018-07-26T03:18:15.734Z,28.28
2018-07-26T03:21:16.066Z,28.26
2018-07-26T03:24:15.243Z,28.24
2018-07-26T03:27:15.362Z,28.26
2018-07-26T03:30:15.612Z,28.26
2018-07-26T03:33:15.877Z,28.22
2018-07-26T03:36:15.036Z,28.19
2018-07-26T03:39:15.142Z,28.20
2018-07-26T03:42:15.326Z,28.19
2018-07-26T03:45:15.462Z,28.12
2018-07-26T03:48:15.670Z,28.04
2018-07-26T03:51:15.850Z,28.04
2018-07-26T03:54:15.131Z,28.03
2018-07-26T03:57:15.242Z,28.06
2018-07-26T04:00:15.332Z,28.09
2018-07-26T04:03:15.484Z,28.16
2018-07-26T04:06:15.786Z,28.10
2018-07-26T04:09:15.850Z,28.06
2018-07-26T04:12:15.968Z,28.05
2018-07-26T04:15:15.051Z,28.04
2018-07-26T04:18:15.405Z,28.08
2018-07-26T04:21:15.420Z,28.13
2018-07-26T04:24:15.541Z,28.13
2018-07-26T04:27:15.619Z,28.09
2018-07-26T04:30:15.822Z,28.14
2018-07-26T04:33:15.194Z,28.24
2018-07-26T04:36:15.435Z,28.30
2018-07-26T04:39:15.502Z,28.38
2018-07-26T04:42:15.756Z,28.50
2018-07-26T04:45:15.864Z,28.62
2018-07-26T04:48:15.032Z,28.77
2018-07-26T04:51:15.150Z,28.95
2018-07-26T04:54:15.506Z,29.23
2018-07-26T04:57:15.587Z,29.66
2018-07-26T05:00:16.344Z,30.67
2018-07-26T05:03:21.505Z,31.75
2018-07-26T05:06:15.760Z,33.46
2018-07-26T05:09:15.244Z,34.34
2018-07-26T05:12:15.865Z,35.63
2018-07-26T05:15:16.303Z,37.02
2018-07-26T05:18:16.158Z,38.05
2018-07-26T05:21:15.758Z,39.03
2018-07-26T05:24:15.375Z,39.98
2018-07-26T05:27:16.163Z,40.62
2018-07-26T05:30:15.736Z,41.21
2018-07-26T05:33:15.286Z,41.65
2018-07-26T05:36:15.939Z,42.00
2018-07-26T05:39:15.616Z,42.46
2018-07-26T05:42:16.290Z,43.01
2018-07-26T05:45:15.926Z,43.51
2018-07-26T05:48:15.714Z,44.00
2018-07-26T05:51:15.371Z,44.40
2018-07-26T05:54:16.104Z,44.68
2018-07-26T05:57:15.688Z,44.65
2018-07-26T06:00:15.555Z,44.94
2018-07-26T06:03:16.237Z,45.06
2018-07-26T06:06:15.906Z,45.75
2018-07-26T06:09:15.572Z,46.53
2018-07-26T06:12:16.408Z,47.31
2018-07-26T06:15:15.975Z,47.40
2018-07-26T06:18:15.849Z,47.71
2018-07-26T06:21:15.468Z,48.29
2018-07-26T06:24:16.278Z,49.20
2018-07-26T06:27:15.985Z,49.70
2018-07-26T06:30:15.684Z,50.06
2018-07-26T06:33:15.488Z,50.95
2018-07-26T06:36:16.228Z,51.66
2018-07-26T06:39:15.905Z,52.24
2018-07-26T06:42:15.609Z,51.69
2018-07-26T06:45:15.608Z,51.79
2018-07-26T06:48:16.214Z,51.72
2018-07-26T06:51:15.882Z,51.97
2018-07-26T06:54:15.546Z,52.08
2018-07-26T06:57:16.182Z,53.06
2018-07-26T07:00:16.260Z,53.78
2018-07-26T07:03:15.860Z,53.88
2018-07-26T07:06:15.577Z,54.54
2018-07-26T07:09:16.271Z,54.79
2018-07-26T07:12:15.994Z,55.62
2018-07-26T07:15:15.636Z,55.68
2018-07-26T07:18:15.494Z,56.30
2018-07-26T07:21:15.493Z,56.86
2018-07-26T07:24:16.240Z,56.62
2018-07-26T07:27:15.899Z,56.57
2018-07-26T07:30:15.783Z,56.93
2018-07-26T07:33:15.817Z,56.88
2018-07-26T07:36:16.218Z,58.17
2018-07-26T07:39:16.555Z,58.54
2018-07-26T07:42:16.397Z,59.96
2018-07-26T07:45:17.400Z,59.86
2018-07-26T07:48:17.648Z,59.84
2018-07-26T07:51:17.023Z,59.31
2018-07-26T07:54:17.332Z,59.76
2018-07-26T07:57:17.858Z,60.24
2018-07-26T08:00:17.636Z,60.04
2018-07-26T08:03:17.507Z,60.95
2018-07-26T08:06:18.047Z,61.94
2018-07-26T08:09:18.884Z,61.30
2018-07-26T08:12:19.160Z,60.71
2018-07-26T08:15:18.173Z,60.16
2018-07-26T08:18:18.997Z,60.12
2018-07-26T08:21:18.596Z,58.98
2018-07-26T08:24:17.780Z,58.75
2018-07-26T08:27:17.613Z,59.71
2018-07-26T08:30:17.331Z,60.04
2018-07-26T08:33:17.965Z,60.00
2018-07-26T08:36:17.398Z,58.95
2018-07-26T08:39:17.714Z,59.57
2018-07-26T08:42:17.196Z,59.04
2018-07-26T08:45:17.376Z,57.95
2018-07-26T08:48:17.524Z,57.24
2018-07-26T08:51:17.431Z,56.72
2018-07-26T08:54:17.384Z,55.99
2018-07-26T08:57:17.099Z,54.99
2018-07-26T09:00:16.683Z,54.95
2018-07-26T09:03:16.123Z,54.69
2018-07-26T09:06:16.514Z,54.74
2018-07-26T09:09:17.154Z,55.20
2018-07-26T09:12:16.810Z,55.20
2018-07-26T09:15:16.421Z,55.75
2018-07-26T09:18:17.076Z,55.27
2018-07-26T09:21:17.107Z,55.66
2018-07-26T09:24:16.848Z,55.92
2018-07-26T09:27:16.791Z,56.74
2018-07-26T09:30:16.932Z,57.09
2018-07-26T09:33:17.379Z,56.98
2018-07-26T09:36:17.810Z,56.61
2018-07-26T09:39:17.512Z,56.85
2018-07-26T09:42:17.135Z,56.44
2018-07-26T09:45:17.993Z,56.72
2018-07-26T09:48:17.877Z,56.96
2018-07-26T09:51:17.860Z,56.48
2018-07-26T09:54:17.843Z,55.68
2018-07-26T09:57:17.747Z,55.26
2018-07-26T10:00:17.491Z,55.54
2018-07-26T10:03:17.273Z,56.45
2018-07-26T10:06:18.313Z,57.73
2018-07-26T10:09:17.989Z,58.21
2018-07-26T10:12:18.766Z,56.71
2018-07-26T10:15:18.216Z,56.85
2018-07-26T10:18:17.977Z,57.13
2018-07-26T10:21:19.261Z,57.39
2018-07-26T10:24:18.356Z,57.45
2018-07-26T10:27:18.689Z,57.61
2018-07-26T10:30:19.349Z,57.67
2018-07-26T10:33:18.611Z,58.61
2018-07-26T10:36:18.987Z,58.71
2018-07-26T10:39:19.453Z,58.72
2018-07-26T10:42:18.868Z,58.90
2018-07-26T10:45:19.261Z,57.81
2018-07-26T10:48:18.666Z,57.44
2018-07-26T10:51:18.997Z,57.03
2018-07-26T10:54:19.203Z,57.71
2018-07-26T10:57:18.531Z,58.11
2018-07-26T11:00:18.936Z,57.43
2018-07-26T11:03:19.530Z,57.87
2018-07-26T11:06:19.005Z,58.14
2018-07-26T11:09:19.645Z,58.47
2018-07-26T11:12:19.278Z,57.95
2018-07-26T11:15:19.132Z,57.52
2018-07-26T11:18:19.693Z,58.26
2018-07-26T11:21:19.356Z,58.73
2018-07-26T11:24:18.912Z,56.61
2018-07-26T11:27:19.585Z,55.59
2018-07-26T11:30:18.966Z,55.18
2018-07-26T11:33:18.970Z,54.25
2018-07-26T11:36:18.603Z,53.67
2018-07-26T11:39:18.221Z,54.02
2018-07-26T11:42:18.496Z,54.20
2018-07-26T11:45:17.744Z,53.05
2018-07-26T11:48:17.459Z,51.68
2018-07-26T11:51:16.616Z,50.55
2018-07-26T11:54:16.225Z,50.22
2018-07-26T11:57:16.499Z,49.94
2018-07-26T12:00:16.588Z,49.29
2018-07-26T12:03:16.334Z,48.63
2018-07-26T12:06:16.028Z,47.86
2018-07-26T12:09:15.632Z,47.31
2018-07-26T12:12:16.380Z,46.56
2018-07-26T12:15:16.036Z,45.86
2018-07-26T12:18:15.767Z,45.54
2018-07-26T12:21:15.472Z,45.66
2018-07-26T12:24:16.205Z,44.74
2018-07-26T12:27:15.820Z,44.09
2018-07-26T12:30:15.580Z,43.41
2018-07-26T12:33:16.278Z,43.17
2018-07-26T12:36:15.945Z,43.14
2018-07-26T12:39:15.566Z,43.14
2018-07-26T12:42:16.138Z,43.36
2018-07-26T12:45:15.845Z,43.96
2018-07-26T12:48:15.578Z,44.03
2018-07-26T12:51:16.293Z,44.16
2018-07-26T12:54:15.903Z,44.33
2018-07-26T12:57:15.495Z,44.10
2018-07-26T13:00:16.142Z,43.57
2018-07-26T13:03:15.876Z,43.08
2018-07-26T13:06:15.626Z,42.64
2018-07-26T13:09:16.366Z,42.91
2018-07-26T13:12:15.988Z,43.27
2018-07-26T13:15:15.722Z,43.52
2018-07-26T13:18:15.465Z,43.34
2018-07-26T13:21:16.181Z,43.46
2018-07-26T13:24:15.950Z,43.43
2018-07-26T13:27:15.626Z,43.33
2018-07-26T13:30:16.206Z,43.30
2018-07-26T13:33:15.778Z,42.96
2018-07-26T13:36:15.475Z,42.24
2018-07-26T13:39:16.248Z,42.09
2018-07-26T13:42:15.802Z,42.41
2018-07-26T13:45:15.390Z,42.55
2018-07-26T13:48:16.009Z,42.80
2018-07-26T13:51:15.752Z,43.13
2018-07-26T13:54:15.326Z,43.27
2018-07-26T13:57:16.056Z,42.92
2018-07-26T14:00:15.659Z,42.63
2018-07-26T14:03:15.437Z,42.81
2018-07-26T14:06:16.080Z,42.56
2018-07-26T14:09:15.749Z,42.41
2018-07-26T14:12:15.353Z,42.54
2018-07-26T14:15:16.203Z,42.38
2018-07-26T14:18:15.906Z,42.42
2018-07-26T14:21:15.567Z,42.47
2018-07-26T14:24:16.103Z,42.69
2018-07-26T14:27:16.152Z,42.27
2018-07-26T14:30:16.136Z,41.66
2018-07-26T14:33:15.763Z,41.61
2018-07-26T14:36:15.371Z,41.92
2018-07-26T14:39:16.132Z,42.30
2018-07-26T14:42:15.822Z,42.38
2018-07-26T14:45:15.476Z,41.88
2018-07-26T14:48:16.087Z,41.77
2018-07-26T14:51:15.766Z,41.46
2018-07-26T14:54:15.686Z,41.27
2018-07-26T14:57:16.300Z,41.38
2018-07-26T15:00:15.881Z,41.30
2018-07-26T15:03:15.493Z,41.18
2018-07-26T15:06:16.122Z,41.28
2018-07-26T15:09:15.758Z,41.04
2018-07-26T15:12:15.435Z,40.91
2018-07-26T15:15:16.042Z,40.75
2018-07-26T15:18:15.770Z,40.67
2018-07-26T15:21:15.341Z,40.54
2018-07-26T15:24:15.986Z,40.34
2018-07-26T15:27:15.586Z,40.41
2018-07-26T15:30:16.294Z,40.29
2018-07-26T15:33:16.052Z,40.15
2018-07-26T15:36:15.858Z,40.25
2018-07-26T15:39:16.019Z,40.00
2018-07-26T15:42:15.613Z,39.81
2018-07-26T15:45:16.173Z,39.83
2018-07-26T15:48:15.808Z,39.78
2018-07-26T15:51:15.417Z,39.80
2018-07-26T15:54:16.066Z,39.88
2018-07-26T15:57:15.738Z,39.76
2018-07-26T16:00:15.465Z,39.57
2018-07-26T16:03:16.044Z,39.53
2018-07-26T16:06:15.744Z,39.53
2018-07-26T16:09:15.346Z,39.52
2018-07-26T16:12:16.032Z,39.78
2018-07-26T16:15:15.694Z,39.92
2018-07-26T16:18:15.494Z,39.91
2018-07-26T16:21:16.310Z,39.96
2018-07-26T16:24:16.060Z,39.79
2018-07-26T16:27:15.742Z,39.80
2018-07-26T16:30:15.592Z,39.55
2018-07-26T16:33:16.169Z,39.17
2018-07-26T16:36:15.842Z,39.08
2018-07-26T16:39:15.609Z,38.90
2018-07-26T16:42:16.308Z,38.78
2018-07-26T16:45:16.020Z,38.77
2018-07-26T16:48:15.858Z,38.78
2018-07-26T16:51:15.489Z,38.75
2018-07-26T16:54:15.441Z,38.63
2018-07-26T16:57:16.016Z,38.67
2018-07-26T17:00:15.792Z,38.78
2018-07-26T17:03:15.445Z,38.81
2018-07-26T17:06:16.192Z,38.71
2018-07-26T17:09:15.854Z,38.52
2018-07-26T17:12:15.591Z,38.48
2018-07-26T17:15:16.246Z,38.29
2018-07-26T17:18:16.026Z,38.19
2018-07-26T17:21:15.590Z,38.14
2018-07-26T17:24:16.253Z,37.93
2018-07-26T17:27:15.907Z,37.76
2018-07-26T17:30:15.512Z,37.62
2018-07-26T17:33:16.103Z,37.53
2018-07-26T17:36:15.734Z,37.51
2018-07-26T17:39:15.499Z,37.40
2018-07-26T17:42:16.099Z,37.19
2018-07-26T17:45:15.775Z,37.00
2018-07-26T17:48:15.511Z,36.98
2018-07-26T17:51:16.221Z,36.78
2018-07-26T17:54:16.157Z,36.83
2018-07-26T17:57:15.850Z,36.98
2018-07-26T18:00:15.791Z,36.96
2018-07-26T18:03:15.378Z,36.84
2018-07-26T18:06:16.016Z,36.84
2018-07-26T18:09:15.689Z,36.72
2018-07-26T18:12:15.364Z,36.69
2018-07-26T18:15:16.034Z,36.50
2018-07-26T18:18:15.687Z,36.33
2018-07-26T18:21:15.478Z,36.19
2018-07-26T18:24:16.226Z,36.13
2018-07-26T18:27:15.797Z,36.05
2018-07-26T18:30:15.467Z,35.90
2018-07-26T18:33:16.173Z,35.89
2018-07-26T18:36:15.909Z,35.79
2018-07-26T18:39:15.591Z,35.72
2018-07-26T18:42:16.219Z,35.66
2018-07-26T18:45:15.973Z,35.63
2018-07-26T18:48:15.661Z,35.54
2018-07-26T18:51:15.309Z,35.40
2018-07-26T18:54:16.056Z,35.30
2018-07-26T18:57:15.616Z,35.18
2018-07-26T19:00:16.400Z,35.02
2018-07-26T19:03:16.126Z,34.93
2018-07-26T19:06:15.656Z,34.94
2018-07-26T19:09:15.315Z,34.95
2018-07-26T19:12:16.004Z,34.86
2018-07-26T19:15:15.688Z,34.78
2018-07-26T19:18:15.442Z,34.80
2018-07-26T19:21:16.155Z,34.79
2018-07-26T19:24:15.810Z,34.79
2018-07-26T19:27:15.582Z,34.78
2018-07-26T19:30:16.130Z,34.76
2018-07-26T19:33:15.700Z,34.70
2018-07-26T19:36:15.463Z,34.68
2018-07-26T19:39:16.332Z,34.60
2018-07-26T19:42:16.127Z,34.49
2018-07-26T19:45:15.861Z,34.39
2018-07-26T19:48:15.586Z,34.29
2018-07-26T19:51:16.217Z,34.24
2018-07-26T19:54:15.884Z,34.20
2018-07-26T19:57:15.650Z,34.12
2018-07-26T20:00:15.360Z,34.06
2018-07-26T20:03:16.105Z,34.05
2018-07-26T20:06:15.717Z,34.01
2018-07-26T20:09:15.458Z,33.93
2018-07-26T20:12:16.250Z,33.90
2018-07-26T20:15:16.039Z,33.87
2018-07-26T20:18:15.772Z,33.83
2018-07-26T20:21:15.248Z,33.80
2018-07-26T20:24:15.868Z,33.69
2018-07-26T20:27:15.590Z,33.64
2018-07-26T20:30:16.206Z,33.54
2018-07-26T20:33:15.909Z,33.39
2018-07-26T20:36:15.761Z,33.29
2018-07-26T20:39:15.587Z,33.25
2018-07-26T20:42:16.802Z,33.23
2018-07-26T20:45:16.180Z,33.18
2018-07-26T20:48:16.221Z,33.11
2018-07-26T20:51:15.933Z,33.03
2018-07-26T20:54:15.528Z,32.97
2018-07-26T20:57:16.125Z,32.92
2018-07-26T21:00:15.710Z,32.81
2018-07-26T21:03:15.415Z,32.72
2018-07-26T21:06:16.075Z,32.70
2018-07-26T21:09:15.770Z,32.62
2018-07-26T21:12:15.431Z,32.53
2018-07-26T21:15:15.983Z,32.49
2018-07-26T21:18:15.741Z,32.43
2018-07-26T21:21:15.419Z,32.35
2018-07-26T21:24:16.152Z,32.27
2018-07-26T21:27:15.717Z,32.20
2018-07-26T21:30:15.843Z,32.12
2018-07-26T21:33:15.496Z,32.04
2018-07-26T21:36:16.107Z,31.96
2018-07-26T21:39:15.677Z,31.87
2018-07-26T21:42:16.199Z,31.79
2018-07-26T21:45:15.782Z,31.77
2018-07-26T21:48:20.488Z,31.75
2018-07-26T21:51:16.129Z,31.77
2018-07-26T21:54:15.710Z,31.78
2018-07-26T21:57:16.134Z,31.71
2018-07-26T22:00:16.157Z,31.54
2018-07-26T22:03:16.284Z,31.51
2018-07-26T22:06:15.354Z,31.43
2018-07-26T22:09:20.887Z,31.41
2018-07-26T22:12:15.365Z,31.36
2018-07-26T22:15:15.924Z,31.32
2018-07-26T22:18:15.612Z,31.30
2018-07-26T22:21:16.007Z,31.22
2018-07-26T22:24:15.480Z,31.14
2018-07-26T22:27:15.992Z,31.11
2018-07-26T22:30:15.409Z,31.05
2018-07-26T22:33:15.783Z,31.00
2018-07-26T22:36:15.274Z,31.00
2018-07-26T22:39:15.708Z,30.97
2018-07-26T22:42:15.937Z,30.93
2018-07-26T22:45:15.325Z,30.94
2018-07-26T22:48:15.669Z,30.90
2018-07-26T22:51:16.156Z,30.87
2018-07-26T22:54:15.545Z,30.88
2018-07-26T22:57:15.869Z,30.86
2018-07-26T23:00:15.383Z,30.83
2018-07-26T23:03:15.763Z,30.81
2018-07-26T23:06:16.059Z,30.78
2018-07-26T23:09:15.318Z,30.68
2018-07-26T23:12:15.648Z,30.65
2018-07-26T23:15:15.048Z,30.63
2018-07-26T23:18:15.547Z,30.57
2018-07-26T23:21:15.785Z,30.48
2018-07-26T23:24:15.044Z,30.47
2018-07-26T23:27:15.357Z,30.44
2018-07-26T23:30:15.652Z,30.44
2018-07-26T23:33:15.849Z,30.44
2018-07-26T23:36:15.129Z,30.36
2018-07-26T23:39:15.353Z,30.31
2018-07-26T23:42:15.558Z,30.28
2018-07-26T23:45:15.883Z,30.27
2018-07-26T23:48:15.153Z,30.27
2018-07-26T23:51:15.315Z,30.21
2018-07-26T23:54:15.556Z,30.21
2018-07-26T23:57:15.714Z,30.18
